sensor_id;sensor_type;location;lat;lon;timestamp;temperature;humidity
13880;DHT22;7010;48.200;16.332;2022-09-02T00:01:41;16.20;93.00
13880;DHT22;7010;48.200;16.332;2022-09-02T00:04:18;16.20;93.20
13880;DHT22;7010;48.200;16.332;2022-09-02T00:06:49;16.20;93.00
13880;DHT22;7010;48.200;16.332;2022-09-02T00:09:19;16.10;93.20
13880;DHT22;7010;48.200;16.332;2022-09-02T00:11:48;16.10;93.60
13880;DHT22;7010;48.200;16.332;2022-09-02T00:14:21;16.00;94.10
13880;DHT22;7010;48.200;16.332;2022-09-02T00:16:49;16.00;95.40
13880;DHT22;7010;48.200;16.332;2022-09-02T00:19:21;15.90;94.90
13880;DHT22;7010;48.200;16.332;2022-09-02T00:21:51;15.80;95.20
13880;DHT22;7010;48.200;16.332;2022-09-02T00:24:21;15.70;95.40
13880;DHT22;7010;48.200;16.332;2022-09-02T00:26:52;15.70;96.10
13880;DHT22;7010;48.200;16.332;2022-09-02T00:29:23;15.70;96.10
13880;DHT22;7010;48.200;16.332;2022-09-02T00:31:51;15.60;96.50
13880;DHT22;7010;48.200;16.332;2022-09-02T00:34:21;15.60;97.00
13880;DHT22;7010;48.200;16.332;2022-09-02T00:36:50;15.60;96.90
13880;DHT22;7010;48.200;16.332;2022-09-02T00:39:18;15.50;97.00
13880;DHT22;7010;48.200;16.332;2022-09-02T00:41:47;15.50;97.30
13880;DHT22;7010;48.200;16.332;2022-09-02T00:44:16;15.40;97.70
13880;DHT22;7010;48.200;16.332;2022-09-02T00:46:46;15.30;97.80
13880;DHT22;7010;48.200;16.332;2022-09-02T00:49:19;15.30;98.20
13880;DHT22;7010;48.200;16.332;2022-09-02T00:51:54;15.20;98.50
13880;DHT22;7010;48.200;16.332;2022-09-02T00:54:26;15.20;99.60
13880;DHT22;7010;48.200;16.332;2022-09-02T00:56:55;15.20;99.30
13880;DHT22;7010;48.200;16.332;2022-09-02T00:59:29;15.20;99.50
13880;DHT22;7010;48.200;16.332;2022-09-02T01:02:05;15.20;99.90
13880;DHT22;7010;48.200;16.332;2022-09-02T01:04:34;15.20;99.90
13880;DHT22;7010;48.200;16.332;2022-09-02T01:07:04;15.10;99.90
13880;DHT22;7010;48.200;16.332;2022-09-02T01:09:32;15.10;99.90
13880;DHT22;7010;48.200;16.332;2022-09-02T01:12:02;15.10;99.90
13880;DHT22;7010;48.200;16.332;2022-09-02T01:14:31;15.00;99.90
13880;DHT22;7010;48.200;16.332;2022-09-02T01:17:01;15.10;99.90
13880;DHT22;7010;48.200;16.332;2022-09-02T01:19:33;15.10;99.90
13880;DHT22;7010;48.200;16.332;2022-09-02T01:22:06;15.00;99.90
13880;DHT22;7010;48.200;16.332;2022-09-02T01:24:41;15.00;99.90
13880;DHT22;7010;48.200;16.332;2022-09-02T01:27:13;15.00;99.90
13880;DHT22;7010;48.200;16.332;2022-09-02T01:29:42;15.00;99.90
13880;DHT22;7010;48.200;16.332;2022-09-02T01:32:11;15.00;99.90
13880;DHT22;7010;48.200;16.332;2022-09-02T01:34:40;15.00;99.90
13880;DHT22;7010;48.200;16.332;2022-09-02T01:37:10;15.00;99.90
13880;DHT22;7010;48.200;16.332;2022-09-02T01:39:39;15.00;99.90
13880;DHT22;7010;48.200;16.332;2022-09-02T01:42:07;14.90;99.90
13880;DHT22;7010;48.200;16.332;2022-09-02T01:44:37;14.90;99.90
13880;DHT22;7010;48.200;16.332;2022-09-02T01:47:10;14.90;99.90
13880;DHT22;7010;48.200;16.332;2022-09-02T01:49:38;14.90;99.90
13880;DHT22;7010;48.200;16.332;2022-09-02T01:52:08;14.90;99.90
13880;DHT22;7010;48.200;16.332;2022-09-02T01:54:38;14.80;99.90
13880;DHT22;7010;48.200;16.332;2022-09-02T01:57:07;14.70;99.90
13880;DHT22;7010;48.200;16.332;2022-09-02T01:59:35;14.70;99.90
13880;DHT22;7010;48.200;16.332;2022-09-02T02:02:04;14.70;99.90
13880;DHT22;7010;48.200;16.332;2022-09-02T02:04:32;14.70;99.90
13880;DHT22;7010;48.200;16.332;2022-09-02T02:07:02;14.70;99.90
13880;DHT22;7010;48.200;16.332;2022-09-02T02:09:30;14.70;99.90
13880;DHT22;7010;48.200;16.332;2022-09-02T02:12:00;14.70;99.90
13880;DHT22;7010;48.200;16.332;2022-09-02T02:14:29;14.60;99.90
13880;DHT22;7010;48.200;16.332;2022-09-02T02:16:58;14.60;99.90
13880;DHT22;7010;48.200;16.332;2022-09-02T02:19:26;14.60;99.90
13880;DHT22;7010;48.200;16.332;2022-09-02T02:21:57;14.60;99.90
13880;DHT22;7010;48.200;16.332;2022-09-02T02:24:26;14.60;99.90
13880;DHT22;7010;48.200;16.332;2022-09-02T02:26:54;14.60;99.90
13880;DHT22;7010;48.200;16.332;2022-09-02T02:29:24;14.60;99.90
13880;DHT22;7010;48.200;16.332;2022-09-02T02:31:52;14.60;99.90
13880;DHT22;7010;48.200;16.332;2022-09-02T02:34:21;14.60;99.90
13880;DHT22;7010;48.200;16.332;2022-09-02T02:36:49;14.60;99.90
13880;DHT22;7010;48.200;16.332;2022-09-02T02:39:18;14.50;99.90
13880;DHT22;7010;48.200;16.332;2022-09-02T02:41:46;14.50;99.90
13880;DHT22;7010;48.200;16.332;2022-09-02T02:44:15;14.50;99.90
13880;DHT22;7010;48.200;16.332;2022-09-02T02:46:45;14.50;99.90
13880;DHT22;7010;48.200;16.332;2022-09-02T02:49:13;14.40;99.90
13880;DHT22;7010;48.200;16.332;2022-09-02T02:51:42;14.40;99.90
13880;DHT22;7010;48.200;16.332;2022-09-02T02:54:10;14.40;99.90
13880;DHT22;7010;48.200;16.332;2022-09-02T02:56:40;14.40;99.90
13880;DHT22;7010;48.200;16.332;2022-09-02T02:59:08;14.40;99.90
13880;DHT22;7010;48.200;16.332;2022-09-02T03:01:37;14.40;99.90
13880;DHT22;7010;48.200;16.332;2022-09-02T03:04:07;14.40;99.90
13880;DHT22;7010;48.200;16.332;2022-09-02T03:06:35;14.30;99.90
13880;DHT22;7010;48.200;16.332;2022-09-02T03:09:04;14.30;99.90
13880;DHT22;7010;48.200;16.332;2022-09-02T03:11:32;14.30;99.90
13880;DHT22;7010;48.200;16.332;2022-09-02T03:14:01;14.20;99.90
13880;DHT22;7010;48.200;16.332;2022-09-02T03:16:29;14.20;99.90
13880;DHT22;7010;48.200;16.332;2022-09-02T03:18:58;14.20;99.90
13880;DHT22;7010;48.200;16.332;2022-09-02T03:21:27;14.20;99.90
13880;DHT22;7010;48.200;16.332;2022-09-02T03:24:05;14.20;99.90
13880;DHT22;7010;48.200;16.332;2022-09-02T03:26:33;14.20;99.90
13880;DHT22;7010;48.200;16.332;2022-09-02T03:29:01;14.20;99.90
13880;DHT22;7010;48.200;16.332;2022-09-02T03:31:30;14.20;99.90
13880;DHT22;7010;48.200;16.332;2022-09-02T03:33:58;14.20;99.90
13880;DHT22;7010;48.200;16.332;2022-09-02T03:36:31;14.10;99.90
13880;DHT22;7010;48.200;16.332;2022-09-02T03:39:00;14.10;99.90
13880;DHT22;7010;48.200;16.332;2022-09-02T03:41:29;14.10;99.90
13880;DHT22;7010;48.200;16.332;2022-09-02T03:43:57;14.10;99.90
13880;DHT22;7010;48.200;16.332;2022-09-02T03:46:25;14.10;99.90
13880;DHT22;7010;48.200;16.332;2022-09-02T03:48:54;14.00;99.90
13880;DHT22;7010;48.200;16.332;2022-09-02T03:51:23;14.10;99.90
13880;DHT22;7010;48.200;16.332;2022-09-02T03:53:53;14.00;99.90
13880;DHT22;7010;48.200;16.332;2022-09-02T03:56:21;14.00;99.90
13880;DHT22;7010;48.200;16.332;2022-09-02T03:58:51;14.00;99.90
13880;DHT22;7010;48.200;16.332;2022-09-02T04:01:22;13.90;99.90
13880;DHT22;7010;48.200;16.332;2022-09-02T04:04:00;13.90;99.90
13880;DHT22;7010;48.200;16.332;2022-09-02T04:06:28;13.90;99.90
13880;DHT22;7010;48.200;16.332;2022-09-02T04:09:00;13.90;99.90
13880;DHT22;7010;48.200;16.332;2022-09-02T04:11:28;13.90;99.90
13880;DHT22;7010;48.200;16.332;2022-09-02T04:13:57;13.90;99.90
13880;DHT22;7010;48.200;16.332;2022-09-02T04:16:26;13.90;99.90
13880;DHT22;7010;48.200;16.332;2022-09-02T04:18:55;13.90;99.90
13880;DHT22;7010;48.200;16.332;2022-09-02T04:21:24;13.90;99.90
13880;DHT22;7010;48.200;16.332;2022-09-02T04:23:53;13.80;99.90
13880;DHT22;7010;48.200;16.332;2022-09-02T04:26:23;13.80;99.90
13880;DHT22;7010;48.200;16.332;2022-09-02T04:28:51;13.80;99.90
13880;DHT22;7010;48.200;16.332;2022-09-02T04:31:22;13.70;99.90
13880;DHT22;7010;48.200;16.332;2022-09-02T04:33:52;13.80;99.90
13880;DHT22;7010;48.200;16.332;2022-09-02T04:36:20;13.80;99.90
13880;DHT22;7010;48.200;16.332;2022-09-02T04:38:50;13.80;99.90
13880;DHT22;7010;48.200;16.332;2022-09-02T04:41:23;13.80;99.90
13880;DHT22;7010;48.200;16.332;2022-09-02T04:43:54;13.70;99.90
13880;DHT22;7010;48.200;16.332;2022-09-02T04:46:23;13.70;99.90
13880;DHT22;7010;48.200;16.332;2022-09-02T04:49:00;13.70;99.90
13880;DHT22;7010;48.200;16.332;2022-09-02T04:51:29;13.70;99.90
13880;DHT22;7010;48.200;16.332;2022-09-02T04:53:57;13.70;99.90
13880;DHT22;7010;48.200;16.332;2022-09-02T04:56:29;13.70;99.90
13880;DHT22;7010;48.200;16.332;2022-09-02T04:58:58;13.70;99.90
13880;DHT22;7010;48.200;16.332;2022-09-02T05:01:31;13.70;99.90
13880;DHT22;7010;48.200;16.332;2022-09-02T05:04:00;13.70;99.90
13880;DHT22;7010;48.200;16.332;2022-09-02T05:06:29;13.70;99.90
13880;DHT22;7010;48.200;16.332;2022-09-02T05:08:58;13.80;99.90
13880;DHT22;7010;48.200;16.332;2022-09-02T05:11:30;13.80;99.90
13880;DHT22;7010;48.200;16.332;2022-09-02T05:14:02;13.80;99.90
13880;DHT22;7010;48.200;16.332;2022-09-02T05:16:34;13.80;99.90
13880;DHT22;7010;48.200;16.332;2022-09-02T05:19:04;13.90;99.90
13880;DHT22;7010;48.200;16.332;2022-09-02T05:21:33;13.90;99.90
13880;DHT22;7010;48.200;16.332;2022-09-02T05:24:02;13.90;99.90
13880;DHT22;7010;48.200;16.332;2022-09-02T05:26:32;13.90;99.90
13880;DHT22;7010;48.200;16.332;2022-09-02T05:29:02;13.90;99.90
13880;DHT22;7010;48.200;16.332;2022-09-02T05:31:31;13.90;99.90
13880;DHT22;7010;48.200;16.332;2022-09-02T05:34:00;13.90;99.90
13880;DHT22;7010;48.200;16.332;2022-09-02T05:36:28;14.00;99.90
13880;DHT22;7010;48.200;16.332;2022-09-02T05:38:58;14.10;99.90
13880;DHT22;7010;48.200;16.332;2022-09-02T05:41:27;14.10;99.90
13880;DHT22;7010;48.200;16.332;2022-09-02T05:44:01;14.10;99.90
13880;DHT22;7010;48.200;16.332;2022-09-02T05:46:30;14.20;99.90
13880;DHT22;7010;48.200;16.332;2022-09-02T05:48:59;14.30;99.90
13880;DHT22;7010;48.200;16.332;2022-09-02T05:51:39;14.30;99.90
13880;DHT22;7010;48.200;16.332;2022-09-02T05:54:09;14.30;99.90
13880;DHT22;7010;48.200;16.332;2022-09-02T05:56:39;14.40;99.90
13880;DHT22;7010;48.200;16.332;2022-09-02T05:59:12;14.50;99.90
13880;DHT22;7010;48.200;16.332;2022-09-02T06:01:41;14.50;99.90
13880;DHT22;7010;48.200;16.332;2022-09-02T06:04:10;14.50;99.90
13880;DHT22;7010;48.200;16.332;2022-09-02T06:06:39;14.60;99.90
13880;DHT22;7010;48.200;16.332;2022-09-02T06:09:11;14.60;99.90
13880;DHT22;7010;48.200;16.332;2022-09-02T06:11:43;14.70;99.90
13880;DHT22;7010;48.200;16.332;2022-09-02T06:14:18;14.70;99.90
13880;DHT22;7010;48.200;16.332;2022-09-02T06:16:48;14.80;99.90
13880;DHT22;7010;48.200;16.332;2022-09-02T06:19:17;14.80;99.90
13880;DHT22;7010;48.200;16.332;2022-09-02T06:21:46;14.90;99.90
13880;DHT22;7010;48.200;16.332;2022-09-02T06:24:16;14.90;99.90
13880;DHT22;7010;48.200;16.332;2022-09-02T06:26:44;14.90;99.90
13880;DHT22;7010;48.200;16.332;2022-09-02T06:29:13;15.00;99.90
13880;DHT22;7010;48.200;16.332;2022-09-02T06:31:45;15.10;99.90
13880;DHT22;7010;48.200;16.332;2022-09-02T06:34:14;15.10;99.90
13880;DHT22;7010;48.200;16.332;2022-09-02T06:36:45;15.20;99.90
13880;DHT22;7010;48.200;16.332;2022-09-02T06:39:21;15.20;99.90
13880;DHT22;7010;48.200;16.332;2022-09-02T06:41:51;15.20;99.90
13880;DHT22;7010;48.200;16.332;2022-09-02T06:44:24;15.20;99.90
13880;DHT22;7010;48.200;16.332;2022-09-02T06:46:56;15.30;99.90
13880;DHT22;7010;48.200;16.332;2022-09-02T06:49:25;15.40;99.90
13880;DHT22;7010;48.200;16.332;2022-09-02T06:51:54;15.40;99.90
13880;DHT22;7010;48.200;16.332;2022-09-02T06:54:23;15.50;99.90
13880;DHT22;7010;48.200;16.332;2022-09-02T06:56:52;15.60;99.90
13880;DHT22;7010;48.200;16.332;2022-09-02T06:59:21;15.70;99.90
13880;DHT22;7010;48.200;16.332;2022-09-02T07:01:53;15.70;99.90
13880;DHT22;7010;48.200;16.332;2022-09-02T07:04:22;15.80;99.90
13880;DHT22;7010;48.200;16.332;2022-09-02T07:07:08;15.80;99.90
13880;DHT22;7010;48.200;16.332;2022-09-02T07:09:38;15.90;99.90
13880;DHT22;7010;48.200;16.332;2022-09-02T07:12:06;15.90;99.90
13880;DHT22;7010;48.200;16.332;2022-09-02T07:14:36;16.00;99.90
13880;DHT22;7010;48.200;16.332;2022-09-02T07:17:08;16.10;99.90
13880;DHT22;7010;48.200;16.332;2022-09-02T07:19:37;16.20;99.90
13880;DHT22;7010;48.200;16.332;2022-09-02T07:22:06;16.30;99.90
13880;DHT22;7010;48.200;16.332;2022-09-02T07:24:34;16.30;99.90
13880;DHT22;7010;48.200;16.332;2022-09-02T07:27:07;16.30;99.90
13880;DHT22;7010;48.200;16.332;2022-09-02T07:29:38;16.20;99.90
13880;DHT22;7010;48.200;16.332;2022-09-02T07:32:11;16.30;99.90
13880;DHT22;7010;48.200;16.332;2022-09-02T07:34:39;16.30;99.90
13880;DHT22;7010;48.200;16.332;2022-09-02T07:37:08;16.40;99.90
13880;DHT22;7010;48.200;16.332;2022-09-02T07:39:37;16.50;99.90
13880;DHT22;7010;48.200;16.332;2022-09-02T07:42:05;16.60;99.90
13880;DHT22;7010;48.200;16.332;2022-09-02T07:44:34;16.70;99.90
13880;DHT22;7010;48.200;16.332;2022-09-02T07:47:03;16.80;99.90
13880;DHT22;7010;48.200;16.332;2022-09-02T07:49:35;16.90;99.90
13880;DHT22;7010;48.200;16.332;2022-09-02T07:52:24;17.00;99.90
13880;DHT22;7010;48.200;16.332;2022-09-02T07:54:52;17.20;99.90
13880;DHT22;7010;48.200;16.332;2022-09-02T07:57:21;17.40;99.90
13880;DHT22;7010;48.200;16.332;2022-09-02T07:59:50;17.50;99.90
13880;DHT22;7010;48.200;16.332;2022-09-02T08:02:18;17.70;99.90
13880;DHT22;7010;48.200;16.332;2022-09-02T08:04:48;18.00;99.90
13880;DHT22;7010;48.200;16.332;2022-09-02T08:07:17;18.30;99.90
13880;DHT22;7010;48.200;16.332;2022-09-02T08:09:50;18.60;99.90
13880;DHT22;7010;48.200;16.332;2022-09-02T08:12:18;18.90;99.90
13880;DHT22;7010;48.200;16.332;2022-09-02T08:14:48;19.10;99.90
13880;DHT22;7010;48.200;16.332;2022-09-02T08:17:47;19.10;99.90
13880;DHT22;7010;48.200;16.332;2022-09-02T08:20:17;19.30;99.90
13880;DHT22;7010;48.200;16.332;2022-09-02T08:22:45;19.70;99.90
13880;DHT22;7010;48.200;16.332;2022-09-02T08:25:30;20.20;99.90
13880;DHT22;7010;48.200;16.332;2022-09-02T08:27:59;20.60;99.90
13880;DHT22;7010;48.200;16.332;2022-09-02T08:30:27;21.30;99.90
13880;DHT22;7010;48.200;16.332;2022-09-02T08:32:56;22.10;99.90
13880;DHT22;7010;48.200;16.332;2022-09-02T08:35:26;22.90;99.90
13880;DHT22;7010;48.200;16.332;2022-09-02T08:37:57;23.90;99.80
13880;DHT22;7010;48.200;16.332;2022-09-02T08:40:33;24.70;98.30
13880;DHT22;7010;48.200;16.332;2022-09-02T08:43:21;25.60;95.10
13880;DHT22;7010;48.200;16.332;2022-09-02T08:45:52;26.20;92.90
13880;DHT22;7010;48.200;16.332;2022-09-02T08:48:28;26.90;91.70
13880;DHT22;7010;48.200;16.332;2022-09-02T08:51:04;27.50;89.60
13880;DHT22;7010;48.200;16.332;2022-09-02T08:53:38;27.80;85.50
13880;DHT22;7010;48.200;16.332;2022-09-02T08:56:10;28.00;82.60
13880;DHT22;7010;48.200;16.332;2022-09-02T09:05:12;27.70;81.80
13880;DHT22;7010;48.200;16.332;2022-09-02T09:07:55;27.90;81.50
13880;DHT22;7010;48.200;16.332;2022-09-02T09:10:33;28.10;79.60
13880;DHT22;7010;48.200;16.332;2022-09-02T09:16:21;28.80;76.30
13880;DHT22;7010;48.200;16.332;2022-09-02T09:18:58;28.70;75.60
13880;DHT22;7010;48.200;16.332;2022-09-02T09:21:34;28.90;72.20
13880;DHT22;7010;48.200;16.332;2022-09-02T09:24:08;29.10;72.50
13880;DHT22;7010;48.200;16.332;2022-09-02T09:26:38;29.10;70.30
13880;DHT22;7010;48.200;16.332;2022-09-02T09:29:08;29.00;69.80
13880;DHT22;7010;48.200;16.332;2022-09-02T09:31:36;28.70;72.50
13880;DHT22;7010;48.200;16.332;2022-09-02T09:34:07;27.80;67.10
13880;DHT22;7010;48.200;16.332;2022-09-02T09:36:45;27.90;72.20
13880;DHT22;7010;48.200;16.332;2022-09-02T09:39:19;28.20;70.80
13880;DHT22;7010;48.200;16.332;2022-09-02T09:41:48;28.60;72.90
13880;DHT22;7010;48.200;16.332;2022-09-02T09:44:34;29.50;70.80
13880;DHT22;7010;48.200;16.332;2022-09-02T09:47:06;30.30;66.90
13880;DHT22;7010;48.200;16.332;2022-09-02T09:49:36;30.80;65.00
13880;DHT22;7010;48.200;16.332;2022-09-02T09:52:05;30.80;62.30
13880;DHT22;7010;48.200;16.332;2022-09-02T09:54:35;30.50;61.60
13880;DHT22;7010;48.200;16.332;2022-09-02T09:57:19;29.40;62.20
13880;DHT22;7010;48.200;16.332;2022-09-02T10:00:10;29.70;63.10
13880;DHT22;7010;48.200;16.332;2022-09-02T10:02:46;29.90;62.70
13880;DHT22;7010;48.200;16.332;2022-09-02T10:08:26;30.80;61.70
13880;DHT22;7010;48.200;16.332;2022-09-02T10:11:01;31.10;61.80
13880;DHT22;7010;48.200;16.332;2022-09-02T10:13:32;31.30;59.80
13880;DHT22;7010;48.200;16.332;2022-09-02T10:16:27;31.40;60.50
13880;DHT22;7010;48.200;16.332;2022-09-02T10:19:06;31.30;59.10
13880;DHT22;7010;48.200;16.332;2022-09-02T10:21:50;31.40;56.00
13880;DHT22;7010;48.200;16.332;2022-09-02T10:28:30;31.20;57.80
13880;DHT22;7010;48.200;16.332;2022-09-02T10:31:07;31.00;58.40
13880;DHT22;7010;48.200;16.332;2022-09-02T10:33:45;31.00;56.50
13880;DHT22;7010;48.200;16.332;2022-09-02T10:36:22;30.90;53.90
13880;DHT22;7010;48.200;16.332;2022-09-02T10:39:01;30.70;53.80
13880;DHT22;7010;48.200;16.332;2022-09-02T10:41:38;30.30;54.20
13880;DHT22;7010;48.200;16.332;2022-09-02T10:44:31;30.00;54.60
13880;DHT22;7010;48.200;16.332;2022-09-02T10:47:05;29.80;55.80
13880;DHT22;7010;48.200;16.332;2022-09-02T10:49:45;29.60;55.20
13880;DHT22;7010;48.200;16.332;2022-09-02T10:52:26;29.70;53.80
13880;DHT22;7010;48.200;16.332;2022-09-02T10:55:03;29.30;55.30
13880;DHT22;7010;48.200;16.332;2022-09-02T10:57:39;29.20;55.80
13880;DHT22;7010;48.200;16.332;2022-09-02T11:00:14;29.20;55.90
13880;DHT22;7010;48.200;16.332;2022-09-02T11:02:47;29.20;56.30
13880;DHT22;7010;48.200;16.332;2022-09-02T11:05:22;29.30;57.20
13880;DHT22;7010;48.200;16.332;2022-09-02T11:07:54;29.50;55.80
13880;DHT22;7010;48.200;16.332;2022-09-02T11:10:28;29.60;56.10
13880;DHT22;7010;48.200;16.332;2022-09-02T11:13:03;29.70;56.20
13880;DHT22;7010;48.200;16.332;2022-09-02T11:15:40;29.70;56.40
13880;DHT22;7010;48.200;16.332;2022-09-02T11:18:19;29.90;55.70
13880;DHT22;7010;48.200;16.332;2022-09-02T11:20:57;30.00;55.80
13880;DHT22;7010;48.200;16.332;2022-09-02T11:23:36;30.20;55.30
13880;DHT22;7010;48.200;16.332;2022-09-02T11:26:12;30.20;55.40
13880;DHT22;7010;48.200;16.332;2022-09-02T11:28:49;30.50;56.10
13880;DHT22;7010;48.200;16.332;2022-09-02T11:31:26;30.60;55.30
13880;DHT22;7010;48.200;16.332;2022-09-02T11:34:04;30.40;54.80
13880;DHT22;7010;48.200;16.332;2022-09-02T11:36:38;30.30;55.50
13880;DHT22;7010;48.200;16.332;2022-09-02T11:39:10;30.50;54.40
13880;DHT22;7010;48.200;16.332;2022-09-02T11:42:07;30.50;53.90
13880;DHT22;7010;48.200;16.332;2022-09-02T11:44:55;30.90;55.80
13880;DHT22;7010;48.200;16.332;2022-09-02T11:47:54;31.30;55.00
13880;DHT22;7010;48.200;16.332;2022-09-02T11:50:46;31.20;53.90
13880;DHT22;7010;48.200;16.332;2022-09-02T11:53:23;30.90;54.70
13880;DHT22;7010;48.200;16.332;2022-09-02T11:55:56;30.90;53.20
13880;DHT22;7010;48.200;16.332;2022-09-02T11:58:31;30.80;53.70
13880;DHT22;7010;48.200;16.332;2022-09-02T12:03:59;30.80;53.80
13880;DHT22;7010;48.200;16.332;2022-09-02T12:07:23;31.00;53.80
13880;DHT22;7010;48.200;16.332;2022-09-02T12:09:59;31.60;54.80
13880;DHT22;7010;48.200;16.332;2022-09-02T12:13:03;32.10;54.40
13880;DHT22;7010;48.200;16.332;2022-09-02T12:15:35;32.10;52.40
13880;DHT22;7010;48.200;16.332;2022-09-02T12:18:11;32.10;52.80
13880;DHT22;7010;48.200;16.332;2022-09-02T12:24:28;32.30;51.60
13880;DHT22;7010;48.200;16.332;2022-09-02T12:27:23;32.30;52.80
13880;DHT22;7010;48.200;16.332;2022-09-02T12:29:52;32.10;50.80
13880;DHT22;7010;48.200;16.332;2022-09-02T12:35:51;31.70;51.70
13880;DHT22;7010;48.200;16.332;2022-09-02T12:38:31;31.50;51.10
13880;DHT22;7010;48.200;16.332;2022-09-02T12:41:29;31.30;52.10
13880;DHT22;7010;48.200;16.332;2022-09-02T12:47:05;31.00;52.60
13880;DHT22;7010;48.200;16.332;2022-09-02T12:49:49;30.80;51.20
13880;DHT22;7010;48.200;16.332;2022-09-02T12:52:41;30.80;51.40
13880;DHT22;7010;48.200;16.332;2022-09-02T12:55:17;31.00;52.10
13880;DHT22;7010;48.200;16.332;2022-09-02T12:57:49;31.10;53.00
13880;DHT22;7010;48.200;16.332;2022-09-02T13:00:25;31.10;51.40
13880;DHT22;7010;48.200;16.332;2022-09-02T13:03:02;31.40;52.10
13880;DHT22;7010;48.200;16.332;2022-09-02T13:05:47;31.50;52.30
13880;DHT22;7010;48.200;16.332;2022-09-02T13:11:44;31.30;52.60
13880;DHT22;7010;48.200;16.332;2022-09-02T13:14:43;31.10;52.70
13880;DHT22;7010;48.200;16.332;2022-09-02T13:17:34;31.30;52.40
13880;DHT22;7010;48.200;16.332;2022-09-02T13:26:59;30.70;49.40
13880;DHT22;7010;48.200;16.332;2022-09-02T13:30:17;30.60;49.60
13880;DHT22;7010;48.200;16.332;2022-09-02T13:32:55;30.10;49.30
13880;DHT22;7010;48.200;16.332;2022-09-02T13:35:26;30.10;50.00
13880;DHT22;7010;48.200;16.332;2022-09-02T13:37:55;29.80;51.60
13880;DHT22;7010;48.200;16.332;2022-09-02T13:40:28;29.80;52.10
13880;DHT22;7010;48.200;16.332;2022-09-02T13:43:01;29.90;52.50
13880;DHT22;7010;48.200;16.332;2022-09-02T13:45:33;30.10;52.40
13880;DHT22;7010;48.200;16.332;2022-09-02T13:48:10;30.10;50.60
13880;DHT22;7010;48.200;16.332;2022-09-02T13:50:44;30.20;50.20
13880;DHT22;7010;48.200;16.332;2022-09-02T13:53:20;30.10;51.30
13880;DHT22;7010;48.200;16.332;2022-09-02T13:56:13;29.90;50.70
13880;DHT22;7010;48.200;16.332;2022-09-02T13:58:45;30.00;51.70
13880;DHT22;7010;48.200;16.332;2022-09-02T14:01:22;29.90;51.30
13880;DHT22;7010;48.200;16.332;2022-09-02T14:03:53;29.90;50.20
13880;DHT22;7010;48.200;16.332;2022-09-02T14:06:25;29.50;51.50
13880;DHT22;7010;48.200;16.332;2022-09-02T14:08:57;29.50;52.40
13880;DHT22;7010;48.200;16.332;2022-09-02T14:11:28;29.30;52.50
13880;DHT22;7010;48.200;16.332;2022-09-02T14:13:59;29.30;52.00
13880;DHT22;7010;48.200;16.332;2022-09-02T14:16:32;29.00;51.60
13880;DHT22;7010;48.200;16.332;2022-09-02T14:19:09;28.70;53.00
13880;DHT22;7010;48.200;16.332;2022-09-02T14:21:46;28.60;52.60
13880;DHT22;7010;48.200;16.332;2022-09-02T14:24:19;28.60;52.40
13880;DHT22;7010;48.200;16.332;2022-09-02T14:26:49;28.40;51.70
13880;DHT22;7010;48.200;16.332;2022-09-02T14:29:19;28.40;52.00
13880;DHT22;7010;48.200;16.332;2022-09-02T14:32:09;28.30;52.20
13880;DHT22;7010;48.200;16.332;2022-09-02T14:34:39;28.40;52.80
13880;DHT22;7010;48.200;16.332;2022-09-02T14:37:18;28.20;52.00
13880;DHT22;7010;48.200;16.332;2022-09-02T14:39:51;27.90;53.90
13880;DHT22;7010;48.200;16.332;2022-09-02T14:42:20;27.70;54.10
13880;DHT22;7010;48.200;16.332;2022-09-02T14:44:48;27.50;55.90
13880;DHT22;7010;48.200;16.332;2022-09-02T14:47:20;27.40;54.70
13880;DHT22;7010;48.200;16.332;2022-09-02T14:49:51;27.30;54.10
13880;DHT22;7010;48.200;16.332;2022-09-02T14:52:25;27.30;55.30
13880;DHT22;7010;48.200;16.332;2022-09-02T14:54:55;27.20;55.70
13880;DHT22;7010;48.200;16.332;2022-09-02T14:57:26;27.10;56.40
13880;DHT22;7010;48.200;16.332;2022-09-02T15:00:00;27.10;56.20
13880;DHT22;7010;48.200;16.332;2022-09-02T15:02:32;26.70;56.30
13880;DHT22;7010;48.200;16.332;2022-09-02T15:05:02;26.60;57.70
13880;DHT22;7010;48.200;16.332;2022-09-02T15:07:31;26.50;56.90
13880;DHT22;7010;48.200;16.332;2022-09-02T15:09:59;26.40;56.90
13880;DHT22;7010;48.200;16.332;2022-09-02T15:12:30;26.40;56.70
13880;DHT22;7010;48.200;16.332;2022-09-02T15:14:59;26.30;56.60
13880;DHT22;7010;48.200;16.332;2022-09-02T15:17:28;26.20;56.80
13880;DHT22;7010;48.200;16.332;2022-09-02T15:19:58;26.10;56.00
13880;DHT22;7010;48.200;16.332;2022-09-02T15:22:27;26.00;57.80
13880;DHT22;7010;48.200;16.332;2022-09-02T15:24:55;25.80;56.30
13880;DHT22;7010;48.200;16.332;2022-09-02T15:27:24;25.60;56.10
13880;DHT22;7010;48.200;16.332;2022-09-02T15:29:52;25.60;56.70
13880;DHT22;7010;48.200;16.332;2022-09-02T15:32:20;25.60;57.40
13880;DHT22;7010;48.200;16.332;2022-09-02T15:34:49;25.40;56.50
13880;DHT22;7010;48.200;16.332;2022-09-02T15:37:19;25.20;56.70
13880;DHT22;7010;48.200;16.332;2022-09-02T15:39:48;25.10;57.50
13880;DHT22;7010;48.200;16.332;2022-09-02T15:42:17;25.00;57.90
13880;DHT22;7010;48.200;16.332;2022-09-02T15:44:45;25.00;59.20
13880;DHT22;7010;48.200;16.332;2022-09-02T15:47:14;24.90;58.80
13880;DHT22;7010;48.200;16.332;2022-09-02T15:49:42;24.90;57.20
13880;DHT22;7010;48.200;16.332;2022-09-02T15:52:10;24.80;57.30
13880;DHT22;7010;48.200;16.332;2022-09-02T15:54:40;24.60;58.10
13880;DHT22;7010;48.200;16.332;2022-09-02T15:57:08;24.50;58.80
13880;DHT22;7010;48.200;16.332;2022-09-02T15:59:37;24.40;58.60
13880;DHT22;7010;48.200;16.332;2022-09-02T16:02:05;24.40;59.40
13880;DHT22;7010;48.200;16.332;2022-09-02T16:04:34;24.20;60.30
13880;DHT22;7010;48.200;16.332;2022-09-02T16:07:02;24.20;59.30
13880;DHT22;7010;48.200;16.332;2022-09-02T16:09:31;24.20;58.80
13880;DHT22;7010;48.200;16.332;2022-09-02T16:12:00;24.20;59.40
13880;DHT22;7010;48.200;16.332;2022-09-02T16:14:29;24.10;59.60
13880;DHT22;7010;48.200;16.332;2022-09-02T16:16:57;24.10;59.70
13880;DHT22;7010;48.200;16.332;2022-09-02T16:19:26;24.00;59.20
13880;DHT22;7010;48.200;16.332;2022-09-02T16:21:56;23.90;59.10
13880;DHT22;7010;48.200;16.332;2022-09-02T16:24:25;23.80;59.70
13880;DHT22;7010;48.200;16.332;2022-09-02T16:26:53;23.70;60.70
13880;DHT22;7010;48.200;16.332;2022-09-02T16:29:23;23.60;59.80
13880;DHT22;7010;48.200;16.332;2022-09-02T16:31:54;23.60;60.50
13880;DHT22;7010;48.200;16.332;2022-09-02T16:34:43;23.60;59.90
13880;DHT22;7010;48.200;16.332;2022-09-02T16:37:12;23.50;60.00
13880;DHT22;7010;48.200;16.332;2022-09-02T16:39:41;23.50;60.30
13880;DHT22;7010;48.200;16.332;2022-09-02T16:42:10;23.40;60.40
13880;DHT22;7010;48.200;16.332;2022-09-02T16:44:39;23.30;60.50